KMRF/MRF METAR and TAF weather

Enter ICAO airport designator
Station Type Date Time Source
KMRF METAR 2019/06/17 06:56 UTC NOAA

KMRF 170656Z AUTO 34004KT 10SM CLR 18/12 A3004 RMK AO2 SLP105 T01780117 403390122


Station Type Date Time Source
KMRF Decoded METAR 2019/06/17 06:56 UTC NOAA

Marfa, TX, United States (KMRF) 30-22N 104-01W 1481M
Jun 17, 2019 - 02:56 AM EDT / 2019.06.17 0656 UTC
Wind: from the NNW (340 degrees) at 5 MPH (4 KT):0
Visibility: 10 mile(s):0
Sky conditions: clear
Temperature: 64.0 F (17.8 C)
Dew Point: 53.1 F (11.7 C)
Relative Humidity: 67%
Pressure (altimeter): 30.04 in. Hg (1017 hPa)
ob: KMRF 170656Z AUTO 34004KT 10SM CLR 18/12 A3004 RMK AO2 SLP105 T01780117 403390122
cycle: 7

Station Type Date Time Source
KMRF TAF UTC NOAA

Error!

Example: see airport list